Temp     Hi    Low   Out    Dew  Wind  Wind   Wind    Hi    Hi   Wind   Heat    THW                Rain    Heat    Cool    In     In    In     In     In   In Air   Temp  Wind  Wind    ISS   Arc.
  Date    Time     Out   Temp   Temp   Hum    Pt. Speed   Dir    Run Speed   Dir  Chill  Index  Index   Bar    Rain  Rate    D-D     D-D    Temp   Hum    Dew   Heat    EMC Density    2nd  Samp   Tx   Recept  Int.
----------------------------------------------------------------------------------------------------------------------------------------------------------------------------------------------------------------------
14/12/17 12:10a   19.9   20.2   19.9    54   10.4   0.0   ---   0.00   0.0   ---   19.9   19.4   19.4  1005.8  0.00   0.0   0.000   0.011   27.6    32    9.4   26.7   6.32 1.1519    27.2   216    2     97.3   10 
14/12/17 12:20a   19.7   19.9   19.7    54   10.1   0.0   ---   0.00   0.0   ---   19.7   19.1   19.1  1005.5  0.00   0.0   0.000   0.009   27.5    32    9.3   26.6   6.32 1.1521    27.2   216    2     97.3   10 
14/12/17 12:30a   19.4   19.7   19.4    54    9.9   0.0   ---   0.00   0.0   ---   19.4   18.9   18.9  1005.7  0.00   0.0   0.000   0.008   27.3    32    9.1   26.3   6.33 1.1533    27.2   217    2     97.7   10 
14/12/17 12:40a   19.4   19.4   19.4    56   10.4   0.0   ---   0.00   0.0   ---   19.4   18.9   18.9  1005.7  0.00   0.0   0.000   0.007   27.2    33    9.5   26.2   6.51 1.1534    27.2   221    2     99.5   10 
14/12/17 12:50a   19.3   19.4   19.3    58   10.8   0.0   ---   0.00   0.0   ---   19.3   18.9   18.9  1005.6  0.00   0.0   0.000   0.007   27.1    33    9.4   26.1   6.52 1.1539    27.2   217    2     97.7   10 
14/12/17  1:00a   19.1   19.3   19.1    56   10.1   0.0   ---   0.00   0.0   ---   19.1   18.6   18.6  1005.5  0.00   0.0   0.000   0.005   27.0    33    9.4   26.1   6.53 1.1540    27.2   217    2     97.7   10 
14/12/17  1:10a   18.9   19.1   18.9    57   10.2   0.0   ---   0.00   0.0   ---   18.9   18.4   18.4  1005.5  0.00   0.0   0.000   0.004   26.9    33    9.3   25.9   6.53 1.1545    27.2   217    2     97.7   10 
14/12/17  1:20a   18.7   18.9   18.7    57   10.0   0.0   ---   0.00   0.0   ---   18.7   18.2   18.2  1005.1  0.00   0.0   0.000   0.003   26.8    33    9.2   25.8   6.54 1.1546    27.2   216    2     97.3   10 
14/12/17  1:30a   18.6   18.7   18.6    58   10.1   0.0   ---   0.00   0.0   ---   18.6   18.1   18.1  1004.7  0.00   0.0   0.000   0.002   26.6    33    9.0   25.7   6.55 1.1552    27.2   217    2     97.7   10 
14/12/17  1:40a   18.4   18.6   18.4    57    9.7   0.0   ---   0.00   0.0   ---   18.4   17.8   17.8  1004.7  0.00   0.0   0.000   0.000   26.4    33    8.9   25.6   6.55 1.1557    27.2   215    2     96.8   10 
14/12/17  1:50a   18.3   18.4   18.3    60   10.4   0.0   ---   0.00   0.0   ---   18.3   17.8   17.8  1004.6  0.00   0.0   0.000   0.000   26.3    34    9.2   25.6   6.66 1.1557    27.2   216    2     97.3   10 
14/12/17  2:00a   18.0   18.2   18.0    60   10.1   0.0   ---   0.00   0.0   ---   18.0   17.5   17.5  1004.3  0.00   0.0   0.002   0.000   26.3    34    9.2   25.5   6.66 1.1555    27.2   215    2     96.8   10 
14/12/17  2:10a   17.8   18.0   17.8    61   10.2   0.0   ---   0.00   0.0   ---   17.8   17.4   17.4  1004.3  0.00   0.0   0.003   0.000   26.2    35    9.5   25.5   6.87 1.1556    27.2   211    2     95.0   10 
14/12/17  2:20a   17.8   17.8   17.8    65   11.1   0.0   ---   0.00   0.0   ---   17.8   17.5   17.5  1004.3  0.00   0.0   0.004   0.000   25.9    35    9.3   25.3   6.88 1.1567    27.2   217    2     97.7   10 
14/12/17  2:30a   17.6   17.8   17.6    65   10.9   0.0   ---   0.00   0.0   ---   17.6   17.3   17.3  1004.3  0.00   0.0   0.005   0.000   25.8    35    9.2   25.2   6.88 1.1572    27.2   219    2     98.6   10 
14/12/17  2:40a   17.4   17.6   17.4    64   10.5   0.0   ---   0.00   0.0   ---   17.4   17.0   17.0  1004.3  0.00   0.0   0.007   0.000   25.7    35    9.1   25.0   6.88 1.1577    27.2   215    2     96.8   10 
14/12/17  2:50a   17.2   17.4   17.2    64   10.3   0.0   ---   0.00   0.0   ---   17.2   16.8   16.8  1004.3  0.00   0.0   0.008   0.000   25.6    35    9.0   24.9   6.89 1.1582    27.2   218    2     98.2   10 
14/12/17  3:00a   17.1   17.2   17.1    64   10.2   0.0   ---   0.00   0.0   ---   17.1   16.7   16.7  1004.2  0.00   0.0   0.009   0.000   25.6    35    9.0   24.8   6.89 1.1584    27.2   219    2     98.6   10 
14/12/17  3:10a   16.9   17.1   16.9    64   10.1   0.0   ---   0.00   0.0   ---   16.9   16.6   16.6  1004.2  0.00   0.0   0.010   0.000   25.4    35    8.9   24.8   6.89 1.1589    27.2   223    2    100.0   10 
14/12/17  3:20a   16.8   16.9   16.8    64    9.9   0.0   ---   0.00   0.0   ---   16.8   16.3   16.3  1004.1  0.00   0.0   0.011   0.000   25.3    35    8.8   24.7   6.90 1.1593    27.2   216    2     97.3   10 
14/12/17  3:30a   16.5   16.8   16.5    67   10.3   0.0   ---   0.00   0.0   ---   16.5   16.2   16.2  1003.9  0.00   0.0   0.013   0.000   25.2    36    9.1   24.6   7.00 1.1593    27.2   214    2     96.4   10 
14/12/17  3:40a   16.3   16.5   16.3    68   10.4   0.0   ---   0.00   0.0   ---   16.3   16.0   16.0  1003.9  0.00   0.0   0.014   0.000   25.2    36    9.1   24.6   7.00 1.1593    27.2   215    2     96.8   10 
14/12/17  3:50a   16.3   16.3   16.3    68   10.4   0.0   ---   0.00   0.0   ---   16.3   16.0   16.0  1004.0  0.00   0.0   0.014   0.000   25.2    37    9.4   24.6   7.20 1.1593    27.2   216    2     97.3   10 
14/12/17  4:00a   16.3   16.4   16.3    71   11.1   0.0   ---   0.00   0.0   ---   16.3   16.1   16.1  1004.1  0.00   0.0   0.014   0.000   25.1    37    9.3   24.6   7.21 1.1599    27.2   214    2     96.4   10 
14/12/17  4:10a   16.1   16.3   16.1    71   10.8   0.0   ---   0.00   0.0   ---   16.1   15.8   15.8  1004.1  0.00   0.0   0.015   0.000   24.9    38    9.6   24.4   7.31 1.1600    27.2   218    2     98.2   10 
14/12/17  4:20a   15.9   16.1   15.9    70   10.4   0.0   ---   0.00   0.0   ---   15.9   15.6   15.6  1004.2  0.00   0.0   0.017   0.000   24.8    38    9.5   24.3   7.32 1.1607    27.2   219    2     98.6   10 
14/12/17  4:30a   15.9   15.9   15.9    70   10.4   0.0   ---   0.00   0.0   ---   15.9   15.6   15.6  1004.2  0.00   0.0   0.017   0.000   24.8    38    9.5   24.3   7.32 1.1607    27.2   213    2     95.9   10 
14/12/17  4:40a   15.9   15.9   15.9    69   10.2   0.0   ---   0.00   0.0   ---   15.9   15.6   15.6  1004.2  0.00   0.0   0.017   0.000   24.7    38    9.4   24.2   7.32 1.1613    27.2   217    2     97.7   10 
14/12/17  4:50a   16.1   16.1   15.9    68   10.2   0.0   SSW   0.00   1.6   SSW   16.1   15.7   15.7  1004.3  0.00   0.0   0.015   0.000   24.6    38    9.3   24.0   7.33 1.1622    27.2   217    2     97.7   10 
14/12/17  5:00a   16.1   16.2   16.1    69   10.4   0.0   ---   0.00   0.0   ---   16.1   15.8   15.8  1004.4  0.00   0.0   0.015   0.000   24.4    38    9.2   23.9   7.33 1.1628    27.2   219    2     98.6   10 
14/12/17  5:10a   16.0   16.1   16.0    71   10.7   0.0   ---   0.00   0.0   ---   16.0   15.7   15.7  1004.4  0.00   0.0   0.016   0.000   24.3    39    9.5   23.8   7.53 1.1629    27.2   218    2     98.2   10 
14/12/17  5:20a   15.9   16.0   15.9    71   10.6   0.0   ---   0.00   0.0   ---   15.9   15.6   15.6  1004.5  0.00   0.0   0.017   0.000   24.3    39    9.5   23.8   7.53 1.1631    27.2   215    2     96.8   10 
14/12/17  5:30a   15.8   15.9   15.8    71   10.6   0.0   ---   0.00   0.0   ---   15.8   15.6   15.6  1004.7  0.00   0.0   0.017   0.000   24.3    39    9.4   23.8   7.54 1.1635    27.2   219    2     98.6   10 
14/12/17  5:40a   15.7   15.8   15.7    71   10.4   0.0   ---   0.00   0.0   ---   15.7   15.3   15.3  1004.7  0.00   0.0   0.019   0.000   24.2    39    9.3   23.7   7.54 1.1640    27.2   216    2     97.3   10 
14/12/17  5:50a   15.6   15.7   15.6    72   10.5   0.0   ---   0.00   0.0   ---   15.6   15.3   15.3  1005.0  0.00   0.0   0.019   0.000   24.1    39    9.2   23.6   7.54 1.1650    27.2   213    2     95.9   10 
14/12/17  6:00a   15.4   15.6   15.4    71   10.2   0.0   ---   0.00   0.0   ---   15.4   15.1   15.1  1005.0  0.00   0.0   0.020   0.000   23.9    39    9.1   23.4   7.55 1.1655    27.2   215    2     96.8   10 
14/12/17  6:10a   15.3   15.4   15.3    72   10.3   0.0   ---   0.00   0.0   ---   15.3   15.0   15.0  1005.0  0.00   0.0   0.021   0.000   23.9    39    9.1   23.4   7.55 1.1655    27.2   216    2     97.3   10 
14/12/17  6:20a   15.5   15.5   15.3    72   10.5   0.0   ---   0.00   0.0   ---   15.5   15.2   15.2  1005.4  0.00   0.0   0.020   0.000   23.9    40    9.5   23.4   7.65 1.1658    27.2   218    2     98.2   10 
14/12/17  6:30a   15.9   15.9   15.5    74   11.3   0.0   ---   0.00   0.0   ---   15.9   15.7   15.7  1005.5  0.00   0.0   0.017   0.000   23.9    40    9.5   23.5   7.65 1.1657    27.2   217    2     97.7   10 
14/12/17  6:40a   17.3   17.3   15.9    72   12.2   0.0   ---   0.00   0.0   ---   17.3   17.2   17.2  1005.5  0.00   0.0   0.007   0.000   24.1    40    9.6   23.6   7.64 1.1651    27.2   213    2     95.9   10 
14/12/17  6:50a   18.2   18.2   17.3    68   12.2   0.0   SSW   0.00   1.6   SSW   18.2   18.1   18.1  1005.4  0.00   0.0   0.001   0.000   24.1    40    9.6   23.6   7.64 1.1651    27.2   218    2     98.2   10 
14/12/17  7:00a   18.7   18.7   18.2    70   13.1   0.0   ---   0.00   0.0   ---   18.7   18.8   18.8  1005.2  0.00   0.0   0.000   0.003   24.2    40    9.7   23.7   7.64 1.1643    27.2   218    2     98.2   10 
14/12/17  7:10a   18.9   18.9   18.7    70   13.3   0.0   ---   0.00   0.0   ---   18.9   19.1   19.1  1005.2  0.00   0.0   0.000   0.004   24.3    41   10.2   23.8   7.75 1.1634    27.2   216    2     97.3   10 
14/12/17  7:20a   19.2   19.2   18.9    74   14.4   0.0   SSW   0.00   1.6   SSW   19.2   19.4   19.4  1005.6  0.00   0.0   0.000   0.006   24.6    42   10.8   24.2   7.93 1.1622    27.2   216    2     97.3   10 
14/12/17  7:30a   19.0   19.2   19.0    73   14.0   0.0   ---   0.00   0.0   ---   19.0   19.2   19.2  1006.1  0.00   0.0   0.000   0.005   24.7    42   10.9   24.3   7.92 1.1623    27.2   214    2     96.4   10 
14/12/17  7:40a   18.8   19.0   18.8    70   13.2   0.0   ---   0.00   0.0   ---   18.8   18.9   18.9  1006.1  0.00   0.0   0.000   0.003   24.7    42   10.9   24.3   7.92 1.1620    27.2   216    2     97.3   10 
14/12/17  7:50a   19.1   19.1   18.8    65   12.4   0.0   ---   0.00   0.0   ---   19.1   19.1   19.1  1006.3  0.00   0.0   0.000   0.005   24.8    42   11.0   24.4   7.92 1.1617    27.2   217    2     97.7   10 
14/12/17  8:00a   20.8   20.8   19.1    65   14.0   0.0   ---   0.00   0.0   ---   20.8   20.7   20.7  1005.9  0.00   0.0   0.000   0.017   24.9    42   11.1   24.6   7.91 1.1607    27.2   218    2     98.2   10 
14/12/17  8:10a   22.3   22.3   20.8    64   15.1   0.0   SSW   0.00   1.6   SSW   22.3   22.4   22.4  1005.9  0.00   0.0   0.000   0.027   25.1    42   11.2   24.7   7.91 1.1602    27.2   211    2     95.0   10 
14/12/17  8:20a   23.3   23.3   22.3    61   15.4   0.0   SSW   0.00   1.6   SSW   23.3   23.8   23.8  1006.1  0.00   0.0   0.000   0.035   25.2    42   11.3   24.8   7.90 1.1598    27.2   216    2     97.3   10 
14/12/17  8:30a   24.5   24.5   23.3    46   12.1   0.0    NW   0.00   8.0    NW   24.5   24.3   24.3  1005.6  0.00   0.0   0.000   0.043   25.3    43   11.8   25.0   8.05 1.1581    27.2   215    2     96.8   10 
14/12/17  8:40a   25.3   25.3   24.5    46   12.8   0.0   ---   0.00   0.0   ---   25.3   25.1   25.1  1005.6  0.00   0.0   0.000   0.048   25.4    42   11.6   25.1   7.89 1.1579    27.2   219    2     98.6   10 
14/12/17  8:50a   24.9   25.3   24.9    45   12.2   0.0    NW   0.00   3.2    NW   24.9   24.7   24.7  1005.5  0.00   0.0   0.000   0.046   25.4    41   11.2   25.0   7.75 1.1582    27.2   220    2     99.1   10 
14/12/17  9:00a   25.8   25.8   24.9    45   12.9   0.0     S   0.00   8.0     S   25.8   25.6   25.6  1005.5  0.00   0.0   0.000   0.052   25.6    41   11.3   25.1   7.75 1.1576    27.2   215    2     96.8   10 
14/12/17  9:10a   26.6   26.6   25.8    45   13.7   0.0    NE   0.00   4.8    NE   26.6   26.4   26.4  1005.5  0.00   0.0   0.000   0.057   25.6    41   11.4   25.2   7.75 1.1573    27.2   216    2     97.3   10 
14/12/17  9:20a   26.5   26.8   26.5    41   12.2   0.0   NNW   0.00   4.8   NNW   26.5   26.1   26.1  1005.4  0.00   0.0   0.000   0.057   25.7    41   11.5   25.3   7.75 1.1568    27.2   219    2     98.6   10 
14/12/17  9:30a   25.9   26.5   25.9    44   12.8   0.0   ---   0.00   0.0   ---   25.9   25.7   25.7  1005.7  0.00   0.0   0.000   0.053   25.8    40   11.2   25.3   7.58 1.1569    27.2   217    2     97.7   10 
14/12/17  9:40a   25.4   25.9   25.4    47   13.3   0.0   ---   0.00   0.0   ---   25.4   25.3   25.3  1005.7  0.00   0.0   0.000   0.049   25.8    41   11.6   25.4   7.75 1.1565    27.2   219    2     98.6   10 
14/12/17  9:50a   25.4   25.4   25.3    49   13.9   0.0     S   0.00   1.6     S   25.4   25.4   25.4  1005.7  0.00   0.0   0.000   0.049   25.9    40   11.3   25.5   7.58 1.1564    27.2   216    2     97.3   10 
14/12/17 10:00a   25.8   25.8   25.4    48   13.9   0.0   ---   0.00   0.0   ---   25.8   25.7   25.7  1006.0  0.00   0.0   0.000   0.052   25.9    40   11.3   25.5   7.58 1.1568    27.2   217    2     97.7   10 
14/12/17 10:10a   25.6   25.8   25.6    45   12.7   0.0   ---   0.00   0.0   ---   25.6   25.3   25.3  1006.0  0.00   0.0   0.000   0.050   25.9    40   11.3   25.5   7.58 1.1568    27.2   217    2     97.7   10 
14/12/17 10:20a   25.3   25.4   25.3    47   13.2   0.0   ---   0.00   0.0   ---   25.3   25.1   25.1  1006.3  0.00   0.0   0.000   0.048   26.2    40   11.5   25.7   7.57 1.1560    27.2   215    2     96.8   10 
14/12/17 10:30a   25.3   25.3   25.3    49   13.8   0.0   ---   0.00   0.0   ---   25.3   25.2   25.2  1005.8  0.00   0.0   0.000   0.048   26.2    40   11.5   25.7   7.57 1.1554    27.2   217    2     97.7   10 
14/12/17 10:40a   25.9   25.9   25.3    51   15.0   0.0   ---   0.00   0.0   ---   25.9   26.1   26.1  1005.8  0.00   0.0   0.000   0.053   26.2    40   11.5   25.7   7.57 1.1554    27.2   218    2     98.2   10 
14/12/17 10:50a   27.7   27.7   26.1    45   14.7   0.0   WNW   0.00   4.8   WNW   27.7   27.7   27.7  1005.6  0.00   0.0   0.000   0.065   26.3    40   11.7   25.8   7.56 1.1544    27.2   215    2     96.8   10 
14/12/17 11:00a   29.3   29.3   27.8    38   13.5   1.6   NNW   0.27  11.3   NNW   29.3   29.2   29.2  1005.3  0.00   0.0   0.000   0.076   26.6    39   11.5   25.9   7.45 1.1534    27.2   214    2     96.4   10 
14/12/17 11:10a   29.4   29.6   29.3    36   12.8   1.6   NNW   0.27   9.7   NNW   29.4   29.1   29.1  1005.3  0.00   0.0   0.000   0.077   26.7    39   11.6   26.1   7.45 1.1529    27.2   217    2     97.7   10 
14/12/17 11:20a   28.9   29.4   28.9    38   13.2   0.0   NNW   0.00   4.8   NNW   28.9   28.9   28.9  1005.6  0.00   0.0   0.000   0.074   26.8    39   11.7   26.2   7.45 1.1526    27.2   216    2     97.3   10 
14/12/17 11:30a   29.2   29.2   28.8    41   14.6   0.0   ---   0.00   0.0   ---   29.2   29.4   29.4  1005.5  0.00   0.0   0.000   0.076   26.9    39   11.8   26.3   7.44 1.1520    27.2   216    2     97.3   10 
14/12/17 11:40a   30.0   30.0   29.2    34   12.4   0.0     N   0.00   9.7     N   30.0   29.5   29.5  1005.5  0.00   0.0   0.000   0.081   27.1    39   11.9   26.4   7.44 1.1512    27.2   220    2     99.1   10 
14/12/17 11:50a   29.3   30.0   29.3    38   13.5   0.0   NNW   0.00   1.6   NNW   29.3   29.2   29.2  1005.4  0.00   0.0   0.000   0.076   27.2    39   12.0   26.6   7.43 1.1505    27.2   220    2     99.1   10 
14/12/17 12:00p   29.7   29.7   29.2    39   14.2   0.0   NNW   0.00   4.8     N   29.7   29.7   29.7  1005.4  0.00   0.0   0.000   0.079   27.3    39   12.1   26.7   7.43 1.1500    27.2   219    2     98.6   10 
14/12/17 12:10p   30.3   30.3   29.7    39   14.8   0.0   NNW   0.00   8.0   NNW   30.3   30.4   30.4  1005.4  0.00   0.0   0.000   0.083   27.6    39   12.4   27.1   7.42 1.1484    27.2   213    2     95.9   10 
14/12/17 12:20p   30.4   30.8   30.3    33   12.4   0.0   NNW   0.00   6.4   NNW   30.4   29.8   29.8  1005.1  0.00   0.0   0.000   0.084   27.7    39   12.5   27.3   7.41 1.1476    27.2   220    2     99.1   10 
14/12/17 12:30p   29.3   30.3   29.3    38   13.5   0.0   NNW   0.00   3.2     N   29.3   29.2   29.2  1005.2  0.00   0.0   0.000   0.076   27.8    39   12.6   27.4   7.41 1.1472    27.2   209    2     94.1   10 
14/12/17 12:40p   29.8   29.8   29.2    44   16.2   0.0   WNW   0.00   4.8   WNW   29.8   30.3   30.3  1005.2  0.00   0.0   0.000   0.079   27.9    39   12.7   27.4   7.41 1.1469    27.2   211    2     95.0   10 
14/12/17 12:50p   30.1   30.1   29.8    37   13.8   0.0   WNW   0.00   8.0   WNW   30.1   29.9   29.9  1004.7  0.00   0.0   0.000   0.082   28.0    38   12.4   27.6   7.25 1.1462    27.2   195    2     87.8   10 
14/12/17  1:00p   30.7   30.7   30.1    42   16.3   0.0    NW   0.00   4.8    NW   30.7   31.2   31.2  1004.4  0.00   0.0   0.000   0.086   28.2    39   13.0   27.9   7.39 1.1444    27.2   218    2     98.2   10 
14/12/17  1:10p   31.5   31.5   30.7    33   13.3   1.6    NW   0.27  19.3     N   31.5   30.8   30.8  1004.4  0.00   0.0   0.000   0.091   28.4    38   12.8   28.2   7.25 1.1438    27.2   219    2     98.6   10 
14/12/17  1:20p   31.9   31.9   31.5    30   12.2   1.6   NNW   0.27  17.7   NNW   31.9   31.0   31.0  1004.3  0.00   0.0   0.000   0.094   28.7    38   12.9   28.5   7.25 1.1426    27.2   216    2     97.3   10 
14/12/17  1:30p   31.3   31.9   31.3    31   12.1   0.0   NNW   0.00   9.7   NNW   31.3   30.2   30.2  1004.5  0.00   0.0   0.000   0.090   28.8    37   12.6   28.6   7.07 1.1427    27.2   219    2     98.6   10 
14/12/17  1:40p   30.7   31.3   30.7    31   11.6   1.6   NNW   0.27  11.3   NNW   30.7   29.8   29.8  1004.5  0.00   0.0   0.000   0.086   28.7    37   12.5   28.4   7.08 1.1432    27.2   216    2     97.3   10 
14/12/17  1:50p   30.6   30.7   30.6    36   13.8   0.0    NW   0.00   9.7   WNW   30.6   30.3   30.3  1004.3  0.00   0.0   0.000   0.085   28.8    37   12.6   28.6   7.07 1.1425    27.2   217    2     97.7   10 
14/12/17  2:00p   30.7   30.8   30.6    32   12.1   0.0     W   0.00   8.0   WSW   30.7   29.9   29.9  1004.0  0.00   0.0   0.000   0.086   28.8    37   12.6   28.6   7.07 1.1422    27.2   217    2     97.7   10 
14/12/17  2:10p   30.6   30.7   30.6    37   14.3   0.0   ---   0.00   0.0   ---   30.6   30.4   30.4  1004.0  0.00   0.0   0.000   0.085   28.8    37   12.6   28.6   7.07 1.1422    27.2   218    2     98.2   10 
14/12/17  2:20p   30.7   30.7   30.6    36   13.9   0.0   ---   0.00   0.0   ---   30.7   30.3   30.3  1004.0  0.00   0.0   0.000   0.086   28.9    38   13.1   28.8   7.25 1.1412    27.2   217    2     97.7   10 
14/12/17  2:30p   30.8   30.8   30.7    35   13.6   0.0   ---   0.00   0.0   ---   30.8   30.3   30.3  1003.8  0.00   0.0   0.000   0.087   28.9    38   13.1   28.8   7.25 1.1410    27.2   215    2     96.8   10 
14/12/17  2:40p   30.8   30.8   30.8    34   13.2   0.0     W   0.00   1.6   WNW   30.8   30.2   30.2  1003.8  0.00   0.0   0.000   0.087   29.0    38   13.2   28.9   7.25 1.1404    27.2   215    2     96.8   10 
14/12/17  2:50p   31.3   31.3   30.8    42   16.8   0.0     W   0.00   3.2     W   31.3   31.8   31.8  1003.6  0.00   0.0   0.000   0.090   29.1    38   13.3   29.0   7.25 1.1396    27.2   214    2     96.4   10 
14/12/17  3:00p   32.0   32.0   31.3    30   12.3   0.0   WNW   0.00   8.0   WNW   32.0   31.2   31.2  1003.4  0.00   0.0   0.000   0.095   29.3    37   13.1   29.1   7.05 1.1389    27.2   205    2     92.3   10 
14/12/17  3:10p   32.2   32.2   32.0    34   14.4   0.0   WNW   0.00   1.6   WNW   32.2   32.1   32.1  1003.4  0.00   0.0   0.000   0.096   29.4    37   13.2   29.2   7.05 1.1383    27.2   219    2     98.6   10 
14/12/17  3:20p   31.9   32.2   31.9    34   14.1   0.0   ---   0.00   0.0   ---   31.9   31.5   31.5  1003.5  0.00   0.0   0.000   0.094   29.3    37   13.1   29.1   7.05 1.1390    27.2   218    2     98.2   10 
14/12/17  3:30p   31.5   31.9   31.5    35   14.2   0.0   ---   0.00   0.0   ---   31.5   31.0   31.0  1003.9  0.00   0.0   0.000   0.091   29.2    38   13.4   29.1   7.25 1.1394    27.2   217    2     97.7   10 
14/12/17  3:40p   30.7   31.5   30.7    41   16.0   0.0   WNW   0.00   3.2     N   30.7   31.1   31.1  1003.9  0.00   0.0   0.000   0.086   29.3    38   13.5   29.2   7.25 1.1389    27.2   215    2     96.8   10 
14/12/17  3:50p   30.8   30.8   30.7    38   14.9   0.0   WNW   0.00   1.6   WNW   30.8   30.7   30.7  1003.7  0.00   0.0   0.000   0.087   29.6    38   13.7   29.4   7.25 1.1377    27.2   216    2     97.3   10 
14/12/17  4:00p   30.9   30.9   30.8    39   15.4   0.0   ---   0.00   0.0   ---   30.9   30.9   30.9  1003.4  0.00   0.0   0.000   0.088   29.7    38   13.8   29.6   7.24 1.1367    27.2   216    2     97.3   10 
14/12/17  4:10p   31.1   31.2   30.9    35   13.8   0.0   ---   0.00   0.0   ---   31.1   30.4   30.4  1003.4  0.00   0.0   0.000   0.088   29.8    38   13.9   29.7   7.24 1.1362    27.2   216    2     97.3   10 
14/12/17  4:20p   30.6   31.1   30.6    33   12.5   0.0   ---   0.00   0.0   ---   30.6   29.9   29.9  1003.1  0.00   0.0   0.000   0.085   29.8    38   13.9   29.7   7.24 1.1358    27.2   219    2     98.6   10 
14/12/17  4:30p   30.3   30.6   30.3    37   14.0   0.0   WNW   0.00   1.6   WNW   30.3   30.2   30.2  1003.0  0.00   0.0   0.000   0.083   29.8    38   13.9   29.7   7.24 1.1358    27.2   212    2     95.5   10 
14/12/17  4:40p   30.2   30.3   30.2    36   13.5   0.0   ---   0.00   0.0   ---   30.2   29.9   29.9  1003.0  0.00   0.0   0.000   0.083   29.8    38   13.9   29.7   7.24 1.1358    27.2   213    2     95.9   10 
14/12/17  4:50p   30.0   30.2   30.0    40   14.9   0.0   ---   0.00   0.0   ---   30.0   30.1   30.1  1003.1  0.00   0.0   0.000   0.081   29.6    38   13.7   29.4   7.25 1.1369    27.2   213    2     95.9   10 
14/12/17  5:00p   28.9   30.0   28.9    41   14.4   3.2   NNW   0.54  22.5   WNW   28.9   29.2   29.2  1004.5  0.00   0.0   0.000   0.074   29.6    38   13.7   29.4   7.25 1.1386    27.2   218    2     98.2   10 
14/12/17  5:10p   24.5   28.8   24.5    57   15.4   1.6     S   0.27  12.9     N   24.5   24.8   24.8  1004.5  0.00   0.0   0.000   0.043   29.6    38   13.7   29.4   7.25 1.1386    27.2   213    2     95.9   10 
14/12/17  5:20p   24.1   24.4   23.9    56   14.8   0.0     S   0.00  12.9     S   24.1   24.4   24.4  1004.6  0.00   0.0   0.000   0.040   30.1    38   14.2   30.1   7.23 1.1361    27.2   209    2     94.1   10 
14/12/17  5:30p   25.1   25.1   24.1    52   14.5   0.0   ---   0.00   0.0   ---   25.1   25.1   25.1  1004.8  0.00   0.0   0.000   0.047   30.4    38   14.5   30.4   7.21 1.1347    27.2   219    2     98.6   10 
14/12/17  5:40p   25.4   25.4   25.1    50   14.2   0.0   SSE   0.00   6.4   SSE   25.4   25.3   25.3  1004.8  0.00   0.0   0.000   0.049   30.1    38   14.2   30.1   7.23 1.1363    27.2   216    2     97.3   10 
14/12/17  5:50p   25.3   25.4   25.3    54   15.3   0.0     S   0.00   4.8     S   25.3   25.4   25.4  1004.8  0.00   0.0   0.000   0.048   29.8    38   13.9   29.7   7.24 1.1378    27.2   215    2     96.8   10 
14/12/17  6:00p   25.1   25.3   25.1    54   15.1   0.0   ---   0.00   0.0   ---   25.1   25.2   25.2  1005.3  0.00   0.0   0.000   0.047   29.6    38   13.7   29.4   7.25 1.1395    27.2   215    2     96.8   10 
14/12/17  6:10p   24.9   25.1   24.9    56   15.5   0.0   ---   0.00   0.0   ---   24.9   25.1   25.1  1005.3  0.00   0.0   0.000   0.046   29.3    39   13.9   29.3   7.35 1.1401    27.2   215    2     96.8   10 
14/12/17  6:20p   24.5   24.9   24.5    57   15.4   0.0   ---   0.00   0.0   ---   24.5   24.8   24.8  1005.4  0.00   0.0   0.000   0.043   29.2    39   13.8   29.2   7.36 1.1407    27.2   219    2     98.6   10 
14/12/17  6:30p   24.3   24.5   24.3    59   15.8   0.0   ---   0.00   0.0   ---   24.3   24.7   24.7  1005.1  0.00   0.0   0.000   0.041   29.1    40   14.1   29.2   7.55 1.1404    27.2   216    2     97.3   10 
14/12/17  6:40p   24.2   24.3   24.2    58   15.4   0.0   ---   0.00   0.0   ---   24.2   24.5   24.5  1005.1  0.00   0.0   0.000   0.041   29.2    40   14.2   29.3   7.55 1.1399    27.2   216    2     97.3   10 
14/12/17  6:50p   24.4   24.4   24.2    55   14.8   0.0   ---   0.00   0.0   ---   24.4   24.6   24.6  1005.1  0.00   0.0   0.000   0.042   29.3    40   14.3   29.4   7.55 1.1394    27.2   216    2     97.3   10 
14/12/17  7:00p   24.7   24.7   24.4    59   16.1   0.0     N   0.00   4.8     N   24.7   25.1   25.1  1005.0  0.00   0.0   0.000   0.044   29.3    40   14.3   29.4   7.55 1.1393    27.2   220    2     99.1   10 
14/12/17  7:10p   24.4   24.7   24.4    61   16.4   0.0     N   0.00   4.8     N   24.4   24.8   24.8  1005.0  0.00   0.0   0.000   0.042   29.3    40   14.3   29.4   7.55 1.1393    27.2   214    2     96.4   10 
14/12/17  7:20p   24.0   24.4   24.0    60   15.8   0.0     N   0.00   3.2     N   24.0   24.5   24.5  1005.1  0.00   0.0   0.000   0.039   29.2    40   14.2   29.3   7.55 1.1399    27.2   213    2     95.9   10 
14/12/17  7:30p   23.9   24.0   23.9    61   15.9   0.0   ---   0.00   0.0   ---   23.9   24.4   24.4  1005.3  0.00   0.0   0.000   0.039   29.2    40   14.2   29.3   7.55 1.1401    27.2   221    2     99.5   10 
14/12/17  7:40p   23.7   23.9   23.7    62   16.0   0.0   ---   0.00   0.0   ---   23.7   24.3   24.3  1005.3  0.00   0.0   0.000   0.037   29.0    41   14.4   29.2   7.67 1.1407    27.2   218    2     98.2   10 
14/12/17  7:50p   23.5   23.7   23.5    59   15.0   0.0   ---   0.00   0.0   ---   23.5   23.9   23.9  1005.4  0.00   0.0   0.000   0.036   29.0    41   14.4   29.2   7.67 1.1408    27.2   216    2     97.3   10 
14/12/17  8:00p   23.4   23.5   23.4    63   15.9   0.0     S   0.00   1.6     S   23.4   23.9   23.9  1005.2  0.00   0.0   0.000   0.035   28.9    41   14.3   29.2   7.67 1.1412    27.2   216    2     97.3   10 
14/12/17  8:10p   23.1   23.4   23.1    64   15.9   0.0   ---   0.00   0.0   ---   23.1   23.6   23.6  1005.2  0.00   0.0   0.000   0.033   28.7    41   14.1   28.8   7.68 1.1423    27.2   220    2     99.1   10 
14/12/17  8:20p   22.8   23.1   22.8    60   14.7   0.0   ---   0.00   0.0   ---   22.8   23.1   23.1  1005.1  0.00   0.0   0.000   0.031   28.7    41   14.1   28.8   7.68 1.1421    27.2   220    2     99.1   10 
14/12/17  8:30p   22.8   22.8   22.8    60   14.7   0.0   ---   0.00   0.0   ---   22.8   23.1   23.1  1005.2  0.00   0.0   0.000   0.031   28.6    42   14.4   28.7   7.85 1.1423    27.2   219    2     98.6   10 
14/12/17  8:40p   22.7   22.8   22.7    62   15.1   0.0   ---   0.00   0.0   ---   22.7   23.0   23.0  1005.2  0.00   0.0   0.000   0.030   28.4    41   13.9   28.4   7.69 1.1433    27.2   215    2     96.8   10 
14/12/17  8:50p   22.7   22.7   22.7    62   15.0   0.0   ---   0.00   0.0   ---   22.7   22.9   22.9  1005.2  0.00   0.0   0.000   0.030   28.4    42   14.3   28.5   7.85 1.1429    27.2   220    2     99.1   10 
14/12/17  9:00p   22.4   22.7   22.4    59   14.0   0.0   ---   0.00   0.0   ---   22.4   22.4   22.4  1005.3  0.00   0.0   0.000   0.029   28.4    41   13.9   28.4   7.69 1.1435    27.2   216    2     97.3   10 
14/12/17  9:10p   22.4   22.4   22.4    58   13.8   0.0   ---   0.00   0.0   ---   22.4   22.4   22.4  1005.3  0.00   0.0   0.000   0.029   28.3    41   13.8   28.3   7.69 1.1440    27.2   217    2     97.7   10 
14/12/17  9:20p   22.4   22.4   22.4    59   14.0   0.0   ---   0.00   0.0   ---   22.4   22.4   22.4  1005.6  0.00   0.0   0.000   0.029   28.3    41   13.8   28.3   7.69 1.1443    27.2   219    2     98.6   10 
14/12/17  9:30p   22.3   22.4   22.3    61   14.4   0.0   ---   0.00   0.0   ---   22.3   22.3   22.3  1005.7  0.00   0.0   0.000   0.027   28.2    41   13.7   28.1   7.69 1.1450    27.2   215    2     96.8   10 
14/12/17  9:40p   22.1   22.3   22.1    64   14.9   0.0   ---   0.00   0.0   ---   22.1   22.1   22.1  1005.7  0.00   0.0   0.000   0.026   28.1    41   13.6   27.9   7.70 1.1456    27.2   216    2     97.3   10 
14/12/17  9:50p   21.9   22.1   21.9    65   15.0   0.0   ---   0.00   0.0   ---   21.9   21.9   21.9  1006.3  0.00   0.0   0.000   0.025   28.0    40   13.1   27.7   7.55 1.1472    27.2   216    2     97.3   10 
14/12/17 10:00p   21.7   21.9   21.7    66   15.0   0.0   ---   0.00   0.0   ---   21.7   21.7   21.7  1006.7  0.00   0.0   0.000   0.023   27.9    42   13.8   27.7   7.85 1.1474    27.2   216    2     97.3   10 
14/12/17 10:10p   21.7   21.7   21.7    67   15.3   0.0   ---   0.00   0.0   ---   21.7   21.7   21.7  1006.7  0.00   0.0   0.000   0.023   27.8    42   13.7   27.6   7.85 1.1476    27.2   214    2     96.4   10 
14/12/17 10:20p   21.6   21.7   21.6    66   15.0   0.0   ---   0.00   0.0   ---   21.6   21.6   21.6  1006.3  0.00   0.0   0.000   0.023   27.8    42   13.7   27.6   7.85 1.1472    27.2   207    2     93.2   10 
14/12/17 10:30p   21.6   21.6   21.6    67   15.2   0.0   ---   0.00   0.0   ---   21.6   21.7   21.7  1006.6  0.00   0.0   0.000   0.023   27.8    42   13.7   27.6   7.85 1.1475    27.2   219    2     98.6   10 
14/12/17 10:40p   21.7   21.7   21.6    69   15.7   0.0   ---   0.00   0.0   ---   21.7   21.8   21.8  1006.6  0.00   0.0   0.000   0.023   27.8    43   14.1   27.7   8.01 1.1470    27.2   215    2     96.8   10 
14/12/17 10:50p   21.5   21.7   21.5    70   15.8   0.0   ---   0.00   0.0   ---   21.5   21.7   21.7  1006.8  0.00   0.0   0.000   0.022   27.8    43   14.1   27.7   8.01 1.1473    27.2   216    2     97.3   10 
14/12/17 11:00p   21.3   21.5   21.3    70   15.6   0.0   ---   0.00   0.0   ---   21.3   21.4   21.4  1006.6  0.00   0.0   0.000   0.021   27.8    43   14.1   27.7   8.01 1.1471    27.2   214    2     96.4   10 
14/12/17 11:10p   21.2   21.3   21.2    68   15.1   0.0   ---   0.00   0.0   ---   21.2   21.2   21.2  1006.6  0.00   0.0   0.000   0.020   27.7    43   14.0   27.5   8.01 1.1477    27.2   219    2     98.6   10 
14/12/17 11:20p   21.4   21.4   21.2    65   14.5   0.0   ---   0.00   0.0   ---   21.4   21.3   21.3  1006.6  0.00   0.0   0.000   0.021   27.6    43   13.9   27.4   8.02 1.1481    27.2   217    2     97.7   10 
14/12/17 11:30p   21.6   21.6   21.4    65   14.7   0.0   ---   0.00   0.0   ---   21.6   21.6   21.6  1006.5  0.00   0.0   0.000   0.023   27.6    43   13.9   27.4   8.02 1.1480    27.2   217    2     97.7   10 
14/12/17 11:40p   21.8   21.8   21.6    68   15.6   0.0   ---   0.00   0.0   ---   21.8   21.9   21.9  1006.5  0.00   0.0   0.000   0.024   27.5    43   13.8   27.2   8.02 1.1486    27.2   217    2     97.7   10 
14/12/17 11:50p   21.7   21.8   21.7    68   15.5   0.0   ---   0.00   0.0   ---   21.7   21.8   21.8  1006.6  0.00   0.0   0.000   0.023   27.4    43   13.7   27.1   8.02 1.1493    27.2   218    2     98.2   10 
15/12/17 12:00a   21.5   21.6   21.5    72   16.2   0.0   ---   0.00   0.0   ---   21.5   21.8   21.8  1006.7  0.00   0.0   0.000   0.022   27.3    44   14.0   27.0   8.15 1.1495    27.2   219    2     98.6   10 
15/12/17 12:10a   21.1   21.4   21.1    70   15.4   0.0   ---   0.00   0.0   ---   21.1   21.1   21.1  1006.7  0.00   0.0   0.000   0.019   27.3    44   14.0   27.0   8.15 1.1495    27.2   213    2     95.9   10 
15/12/17 12:20a   21.1   21.1   21.1    68   15.0   0.0   ---   0.00   0.0   ---   21.1   21.1   21.1  1006.9  0.00   0.0   0.000   0.019   27.2    44   13.9   26.9   8.15 1.1503    27.2   218    2     98.2   10 
15/12/17 12:30a   21.2   21.2   21.1    64   14.1   0.0   ---   0.00   0.0   ---   21.2   21.0   21.0  1006.9  0.00   0.0   0.000   0.020   27.2    44   13.9   26.9   8.15 1.1503    27.2   217    2     97.7   10 
15/12/17 12:40a   21.3   21.3   21.2    66   14.7   0.0   ---   0.00   0.0   ---   21.3   21.3   21.3  1006.9  0.00   0.0   0.000   0.021   27.1    44   13.8   26.8   8.15 1.1508    27.2   216    2     97.3   10 
15/12/17 12:50a   21.4   21.4   21.3    66   14.8   0.0   ---   0.00   0.0   ---   21.4   21.3   21.3  1006.9  0.00   0.0   0.000   0.021   27.0    44   13.7   26.7   8.15 1.1511    27.2   217    2     97.7   10 
15/12/17  1:00a   21.3   21.4   21.3    68   15.2   0.0   ---   0.00   0.0   ---   21.3   21.3   21.3  1006.9  0.00   0.0   0.000   0.021   26.9    44   13.6   26.6   8.15 1.1516    27.2   215    2     96.8   10 
15/12/17  1:10a   21.2   21.3   21.2    67   14.8   0.0   ---   0.00   0.0   ---   21.2   21.2   21.2  1006.9  0.00   0.0   0.000   0.020   26.9    44   13.6   26.6   8.15 1.1516    27.2   218    2     98.2   10 
15/12/17  1:20a   21.1   21.2   21.1    65   14.3   0.0   ---   0.00   0.0   ---   21.1   20.9   20.9  1006.6  0.00   0.0   0.000   0.019   26.8    44   13.5   26.5   8.15 1.1518    27.2   216    2     97.3   10 
15/12/17  1:30a   21.2   21.2   21.1    71   15.8   0.0   ---   0.00   0.0   ---   21.2   21.4   21.4  1006.6  0.00   0.0   0.000   0.020   26.8    44   13.5   26.5   8.15 1.1519    27.2   214    2     96.4   10 
15/12/17  1:40a   21.1   21.2   21.1    70   15.4   0.0   ---   0.00   0.0   ---   21.1   21.1   21.1  1006.6  0.00   0.0   0.000   0.019   26.8    44   13.5   26.5   8.15 1.1519    27.2   218    2     98.2   10 
15/12/17  1:50a   20.9   21.1   20.9    74   16.1   0.0   ---   0.00   0.0   ---   20.9   21.3   21.3  1006.5  0.00   0.0   0.000   0.018   26.7    45   13.7   26.4   8.35 1.1518    27.2   218    2     98.2   10 
15/12/17  2:00a   20.8   20.9   20.8    71   15.3   0.0   ---   0.00   0.0   ---   20.8   21.0   21.0  1006.4  0.00   0.0   0.000   0.017   26.6    45   13.6   26.3   8.35 1.1522    27.2   217    2     97.7   10 
15/12/17  2:10a   20.9   20.9   20.7    63   13.6   0.0   NNE   0.00   4.8   NNE   20.9   20.7   20.7  1006.4  0.00   0.0   0.000   0.018   26.6    45   13.6   26.3   8.35 1.1522    27.2   219    2     98.6   10 
15/12/17  2:20a   21.2   21.2   20.9    62   13.6   0.0   ---   0.00   0.0   ---   21.2   20.9   20.9  1006.0  0.00   0.0   0.000   0.020   26.4    44   13.2   26.2   8.16 1.1527    27.2   220    2     99.1   10 
15/12/17  2:30a   21.6   21.6   21.2    58   13.0   0.0   NNE   0.00   4.8   NNE   21.6   21.2   21.2  1005.9  0.00   0.0   0.000   0.023   26.4    44   13.2   26.2   8.16 1.1526    27.2   219    2     98.6   10 
15/12/17  2:40a   21.8   21.8   21.6    57   12.9   0.0   NNE   0.00   4.8   NNE   21.8   21.4   21.4  1005.9  0.00   0.0   0.000   0.024   26.3    43   12.8   26.0   8.05 1.1535    27.2   216    2     97.3   10 
15/12/17  2:50a   21.7   21.8   21.7    57   12.8   0.0   ---   0.00   0.0   ---   21.7   21.2   21.2  1005.8  0.00   0.0   0.000   0.023   26.3    42   12.3   25.9   7.86 1.1541    27.2   214    2     96.4   10 
15/12/17  3:00a   21.7   21.7   21.6    60   13.6   0.0   NNE   0.00   4.8   NNE   21.7   21.4   21.4  1005.8  0.00   0.0   0.000   0.023   26.3    42   12.3   25.9   7.86 1.1541    27.2   217    2     97.7   10 
15/12/17  3:10a   21.3   21.6   21.3    62   13.8   0.0   ---   0.00   0.0   ---   21.3   21.1   21.1  1005.8  0.00   0.0   0.000   0.021   26.2    42   12.2   25.8   7.87 1.1547    27.2   216    2     97.3   10 
15/12/17  3:20a   21.1   21.3   21.1    61   13.3   0.0   ---   0.00   0.0   ---   21.1   20.7   20.7  1005.8  0.00   0.0   0.000   0.019   26.2    42   12.2   25.8   7.87 1.1547    27.2   212    2     95.5   10 
15/12/17  3:30a   20.9   21.1   20.9    63   13.6   0.0   ---   0.00   0.0   ---   20.9   20.7   20.7  1005.7  0.00   0.0   0.000   0.018   26.2    42   12.2   25.8   7.87 1.1546    27.2   220    2     99.1   10 
15/12/17  3:40a   20.7   20.9   20.7    61   12.9   0.0   ---   0.00   0.0   ---   20.7   20.4   20.4  1005.7  0.00   0.0   0.000   0.016   26.2    42   12.2   25.8   7.87 1.1546    27.2   220    2     99.1   10 
15/12/17  3:50a   20.6   20.7   20.6    62   13.0   0.0   ---   0.00   0.0   ---   20.6   20.3   20.3  1006.0  0.00   0.0   0.000   0.015   26.1    43   12.5   25.8   8.05 1.1550    27.2   216    2     97.3   10 
15/12/17  4:00a   20.5   20.6   20.5    63   13.2   0.0   ---   0.00   0.0   ---   20.5   20.3   20.3  1005.9  0.00   0.0   0.000   0.015   26.1    42   12.1   25.7   7.87 1.1553    27.2   217    2     97.7   10 
15/12/17  4:10a   20.5   20.5   20.5    63   13.2   0.0   ---   0.00   0.0   ---   20.5   20.3   20.3  1005.9  0.00   0.0   0.000   0.015   26.1    43   12.5   25.8   8.05 1.1549    27.2   217    2     97.7   10 
15/12/17  4:20a   20.5   20.5   20.5    64   13.5   0.0   ---   0.00   0.0   ---   20.5   20.4   20.4  1006.3  0.00   0.0   0.000   0.015   25.9    43   12.4   25.7   8.05 1.1560    27.2   217    2     97.7   10 
15/12/17  4:30a   20.5   20.5   20.5    63   13.2   0.0   ---   0.00   0.0   ---   20.5   20.3   20.3  1006.5  0.00   0.0   0.000   0.015   25.9    43   12.4   25.7   8.05 1.1562    27.2   215    2     96.8   10 
15/12/17  4:40a   20.6   20.6   20.5    67   14.2   0.0   NNE   0.00   3.2   NNE   20.6   20.6   20.6  1006.5  0.00   0.0   0.000   0.015   25.8    43   12.3   25.5   8.05 1.1567    27.2   216    2     97.3   10 
15/12/17  4:50a   20.4   20.6   20.4    71   15.0   0.0    NE   0.00   8.0    NE   20.4   20.7   20.7  1006.7  0.00   0.0   0.000   0.014   25.7    43   12.2   25.4   8.05 1.1575    27.2   218    2     98.2   10 
15/12/17  5:00a   20.0   20.3   20.0    74   15.2   0.0   ---   0.00   0.0   ---   20.0   20.4   20.4  1007.3  0.00   0.0   0.000   0.012   25.7    44   12.6   25.4   8.18 1.1578    27.2   215    2     96.8   10 
15/12/17  5:10a   19.7   20.0   19.7    76   15.4   0.0   ---   0.00   0.0   ---   19.7   20.2   20.2  1007.3  0.00   0.0   0.000   0.010   25.7    45   12.9   25.5   8.38 1.1574    27.2   214    2     96.4   10 
15/12/17  5:20a   19.6   19.7   19.6    77   15.4   0.0   ---   0.00   0.0   ---   19.6   20.1   20.1  1007.9  0.00   0.0   0.000   0.008   25.6    46   13.1   25.4   8.49 1.1583    27.2   222    2    100.0   10 
15/12/17  5:30a   19.3   19.6   19.3    77   15.1   0.0   ---   0.00   0.0   ---   19.3   19.7   19.7  1008.3  0.00   0.0   0.000   0.007   25.6    46   13.1   25.4   8.49 1.1587    27.2   219    2     98.6   10 
15/12/17  5:40a   19.2   19.3   19.2    78   15.2   0.0   ---   0.00   0.0   ---   19.2   19.6   19.6  1008.3  0.00   0.0   0.000   0.006   25.6    47   13.4   25.4   8.69 1.1586    27.2   222    2    100.0   10 
15/12/17  5:50a   19.1   19.2   19.1    80   15.6   0.0   ---   0.00   0.0   ---   19.1   19.7   19.7  1008.4  0.00   0.0   0.000   0.005   25.6    47   13.4   25.4   8.69 1.1587    27.2   219    2     98.6   10 
15/12/17  6:00a   19.0   19.1   19.0    80   15.5   0.0   NNE   0.00   3.2   NNE   19.0   19.5   19.5  1008.4  0.00   0.0   0.000   0.005   25.6    47   13.4   25.4   8.69 1.1588    27.2   219    2     98.6   10 
15/12/17  6:10a   18.8   19.0   18.8    80   15.3   0.0   ---   0.00   0.0   ---   18.8   19.3   19.3  1008.4  0.00   0.0   0.000   0.003   25.4    47   13.3   25.3   8.69 1.1593    27.2   216    2     97.3   10 
15/12/17  6:20a   18.8   18.8   18.8    80   15.3   0.0   ---   0.00   0.0   ---   18.8   19.3   19.3  1008.8  0.00   0.0   0.000   0.003   25.3    48   13.5   25.2   8.90 1.1600    27.2   219    2     98.6   10 
15/12/17  6:30a   18.9   18.9   18.8    80   15.4   0.0   ---   0.00   0.0   ---   18.9   19.4   19.4  1008.9  0.00   0.0   0.000   0.004   25.3    48   13.5   25.2   8.90 1.1601    27.2   218    2     98.2   10 
15/12/17  6:40a   18.9   18.9   18.9    81   15.6   0.0   NNE   0.00   3.2   NNE   18.9   19.4   19.4  1008.9  0.25   0.0   0.000   0.004   25.3    48   13.5   25.2   8.90 1.1601    27.2   215    2     96.8   10 
15/12/17  6:50a   18.7   18.9   18.7    83   15.8   0.0   NNE   0.00   4.8   NNE   18.7   19.2   19.2  1009.0  0.25   2.0   0.000   0.003   25.3    48   13.5   25.2   8.90 1.1601    27.2   220    2     99.1   10 
15/12/17  7:00a   18.6   18.7   18.6    85   16.0   0.0   NNE   0.00   3.2   NNE   18.6   19.1   19.1  1009.2  0.00   0.0   0.000   0.002   25.2    49   13.7   25.1   9.00 1.1606    27.2   216    2     97.3   10 
15/12/17  7:10a   18.3   18.6   18.3    86   15.9   0.0   NNE   0.00   4.8   NNE   18.3   18.7   18.7  1009.2  0.25   0.0   0.000   0.000   25.2    49   13.7   25.1   9.00 1.1606    27.2   217    2     97.7   10 
15/12/17  7:20a   18.2   18.4   18.2    87   16.0   0.0   NNE   0.00   6.4   NNE   18.2   18.7   18.7  1010.1  0.25   1.5   0.001   0.000   25.2    49   13.7   25.1   9.00 1.1616    27.2   217    2     97.7   10 
15/12/17  7:30a   18.0   18.1   18.0    88   16.0   1.6   NNE   0.27  11.3   NNE   18.0   18.4   18.4  1010.0  0.25   1.5   0.002   0.000   25.2    49   13.7   25.1   9.00 1.1618    27.2   218    2     98.2   10 
15/12/17  7:40a   17.8   18.0   17.8    89   16.0   1.6   NNE   0.27  11.3   NNE   17.8   18.3   18.3  1010.0  0.25   2.3   0.003   0.000   25.1    50   13.9   24.9   9.21 1.1620    27.2   217    2     97.7   10 
15/12/17  7:50a   17.8   17.8   17.8    90   16.1   1.6   NNE   0.27   9.7   NNE   17.8   18.2   18.2  1010.2  0.25   2.3   0.004   0.000   25.1    50   13.9   24.9   9.21 1.1622    27.2   214    2     96.4   10 
15/12/17  8:00a   17.8   17.8   17.8    91   16.3   0.0    NE   0.00   3.2    NE   17.8   18.2   18.2  1009.8  0.25   1.8   0.004   0.000   25.1    51   14.2   25.0   9.35 1.1614    27.2   214    2     96.4   10 
15/12/17  8:10a   17.8   17.8   17.8    91   16.3   0.0   NNE   0.00  11.3   NNE   17.8   18.2   18.2  1009.8  0.00   0.0   0.004   0.000   25.2    51   14.3   25.2   9.35 1.1608    27.2   219    2     98.6   10 
15/12/17  8:20a   17.7   17.8   17.7    92   16.4   1.6   NNE   0.27  11.3    NE   17.7   18.2   18.2  1010.3  0.00   0.0   0.005   0.000   25.2    51   14.3   25.2   9.35 1.1613    27.2   216    2     97.3   10 
15/12/17  8:30a   17.8   17.8   17.7    92   16.5   1.6    NE   0.27  11.3    NE   17.8   18.3   18.3  1010.3  0.00   0.0   0.004   0.000   25.2    51   14.3   25.2   9.35 1.1614    27.2   217    2     97.7   10 
15/12/17  8:40a   18.0   18.0   17.8    93   16.9   1.6    NE   0.27  11.3    NE   18.0   18.6   18.6  1010.3  0.00   0.0   0.002   0.000   25.2    51   14.3   25.2   9.35 1.1614    27.2   217    2     97.7   10 
15/12/17  8:50a   18.4   18.4   18.0    93   17.2   0.0   NNE   0.00   3.2   NNE   18.4   19.0   19.0  1010.1  0.00   0.0   0.000   0.000   25.2    51   14.4   25.2   9.35 1.1609    27.2   214    2     96.4   10 
15/12/17  9:00a   18.6   18.6   18.4    93   17.4   0.0   NNE   0.00  11.3    NE   18.6   19.2   19.2  1010.2  0.00   0.0   0.000   0.002   25.2    50   14.1   25.2   9.20 1.1614    27.2   214    2     96.4   10 
15/12/17  9:10a   19.4   19.4   18.6    94   18.4   0.0    NE   0.00   9.7    NE   19.4   20.3   20.3  1010.2  0.00   0.0   0.000   0.007   25.3    50   14.2   25.3   9.20 1.1608    27.2   213    2     95.9   10 
15/12/17  9:20a   20.1   20.1   19.4    92   18.8   1.6   NNE   0.27  12.9   ENE   20.1   21.1   21.1  1009.9  0.00   0.0   0.000   0.012   25.6    50   14.4   25.6   9.19 1.1593    27.2   222    2    100.0   10 
15/12/17  9:30a   20.6   20.6   20.1    88   18.5   0.0   NNE   0.00   1.6   NNE   20.6   21.6   21.6  1009.6  0.00   0.0   0.000   0.015   25.6    51   14.7   25.6   9.35 1.1586    27.2   218    2     98.2   10 
15/12/17  9:40a   20.9   20.9   20.5    81   17.6   0.0    NE   0.00   1.6    NE   20.9   21.7   21.7  1009.6  0.00   0.0   0.000   0.018   25.7    50   14.5   25.8   9.18 1.1582    27.2   213    2     95.9   10 
15/12/17  9:50a   21.7   21.7   20.9    77   17.5   0.0   NNE   0.00   4.8   NNE   21.7   22.2   22.2  1009.7  0.00   0.0   0.000   0.023   25.8    50   14.6   25.9   9.18 1.1577    27.2   218    2     98.2   10 
15/12/17 10:00a   22.8   22.8   21.7    73   17.7   0.0   ---   0.00   0.0   ---   22.8   23.6   23.6  1009.5  0.00   0.0   0.000   0.031   25.9    49   14.4   25.9   8.98 1.1573    27.2   216    2     97.3   10 
15/12/17 10:10a   23.0   23.1   22.8    72   17.7   0.0   NNE   0.00   3.2   NNE   23.0   23.8   23.8  1009.5  0.00   0.0   0.000   0.032   26.1    49   14.5   26.1   8.97 1.1567    27.2   215    2     96.8   10 
15/12/17 10:20a   23.6   23.6   23.1    73   18.5   0.0   ---   0.00   0.0   ---   23.6   24.7   24.7  1009.6  0.00   0.0   0.000   0.037   26.2    49   14.6   26.2   8.97 1.1563    27.2   216    2     97.3   10 
15/12/17 10:30a   24.6   24.6   23.6    70   18.7   0.0   ---   0.00   0.0   ---   24.6   25.6   25.6  1009.2  0.00   0.0   0.000   0.043   26.3    49   14.7   26.3   8.96 1.1553    27.2   216    2     97.3   10 
15/12/17 10:40a   25.1   25.1   24.6    69   19.0   0.0   NNE   0.00   3.2   NNE   25.1   26.1   26.1  1009.2  0.00   0.0   0.000   0.047   26.3    49   14.8   26.4   8.96 1.1550    27.2   216    2     97.3   10 
15/12/17 10:50a   24.7   25.2   24.7    65   17.6   0.0   ---   0.00   0.0   ---   24.7   25.3   25.3  1009.2  0.00   0.0   0.000   0.044   26.6    48   14.6   26.5   8.85 1.1543    27.2   221    2     99.5   10 
15/12/17 11:00a   24.9   24.9   24.7    65   17.9   0.0   NNE   0.00   3.2   NNE   24.9   25.7   25.7  1009.1  0.00   0.0   0.000   0.046   26.6    49   15.0   26.6   8.95 1.1539    27.2   214    2     96.4   10 
15/12/17 11:10a   25.4   25.4   24.9    63   17.8   0.0   NNE   0.00   1.6   NNE   25.4   26.1   26.1  1009.1  0.00   0.0   0.000   0.049   26.7    49   15.1   26.7   8.95 1.1533    27.2   216    2     97.3   10 
15/12/17 11:20a   25.4   25.4   25.3    58   16.5   0.0   NNE   0.00   1.6   NNE   25.4   25.8   25.8  1009.0  0.00   0.0   0.000   0.049   26.7    49   15.1   26.7   8.95 1.1532    27.2   215    2     96.8   10 
15/12/17 11:30a   25.7   25.7   25.4    61   17.6   0.0   ---   0.00   0.0   ---   25.7   26.2   26.2  1008.9  0.00   0.0   0.000   0.051   26.7    49   15.1   26.7   8.95 1.1530    27.2   218    2     98.2   10 
15/12/17 11:40a   25.6   25.7   25.6    62   17.7   0.0   ---   0.00   0.0   ---   25.6   26.2   26.2  1008.9  0.00   0.0   0.000   0.050   26.8    49   15.2   26.8   8.95 1.1525    27.2   219    2     98.6   10 
15/12/17 11:50a   25.3   25.6   25.3    65   18.2   0.0   ---   0.00   0.0   ---   25.3   26.1   26.1  1008.9  0.00   0.0   0.000   0.048   26.8    49   15.2   26.8   8.95 1.1525    27.2   217    2     97.7   10 
15/12/17 12:00p   24.9   25.3   24.9    65   17.9   0.0   ---   0.00   0.0   ---   24.9   25.7   25.7  1009.0  0.00   0.0   0.000   0.046   26.8    49   15.2   26.8   8.95 1.1526    27.2   219    2     98.6   10 
15/12/17 12:10p   24.9   24.9   24.9    66   18.1   0.0   ---   0.00   0.0   ---   24.9   25.7   25.7  1009.0  0.00   0.0   0.000   0.046   26.9    49   15.3   26.9   8.94 1.1520    27.2   217    2     97.7   10 
15/12/17 12:20p   24.9   24.9   24.9    65   17.9   0.0   ---   0.00   0.0   ---   24.9   25.7   25.7  1009.2  0.00   0.0   0.000   0.046   26.9    49   15.3   26.9   8.94 1.1523    27.2   215    2     96.8   10 
15/12/17 12:30p   25.1   25.1   24.9    64   17.8   0.0   ---   0.00   0.0   ---   25.1   25.7   25.7  1009.1  0.00   0.0   0.000   0.047   27.0    49   15.4   27.0   8.94 1.1515    27.2   218    2     98.2   10 
15/12/17 12:40p   25.4   25.4   25.1    62   17.6   0.0   ---   0.00   0.0   ---   25.4   26.0   26.0  1009.1  0.00   0.0   0.000   0.049   27.1    48   15.1   27.0   8.84 1.1517    27.2   218    2     98.2   10 
15/12/17 12:50p   25.7   25.7   25.4    64   18.3   0.0   ---   0.00   0.0   ---   25.7   26.4   26.4  1008.4  0.00   0.0   0.000   0.051   27.2    49   15.5   27.2   8.93 1.1500    27.2   217    2     97.7   10 
15/12/17  1:00p   26.5   26.5   25.7    61   18.4   0.0   ---   0.00   0.0   ---   26.5   27.3   27.3  1007.9  0.00   0.0   0.000   0.057   27.2    49   15.5   27.2   8.93 1.1493    27.2   217    2     97.7   10 
15/12/17  1:10p   27.4   27.4   26.5    60   18.9   0.0   ---   0.00   0.0   ---   27.4   28.4   28.4  1007.9  0.00   0.0   0.000   0.063   27.3    48   15.3   27.3   8.83 1.1491    27.2   212    2     95.5   10